Barra do Garcas, Brazil
Current Conditions -  °F | °C
As of 5:00 PM on Thursday 29 Jan 2015 (Local Time) from SBBW Reporting Station
Few Clouds Few Clouds  
Wind Chill: 91°   Ceiling: Unl
Heat Index: 97°   Visibility: 6mi
Dew Point: 70°   Wind: 5mph
Humidity: 49%   Direction: 220°SW
Pressure: 29.88"   Gusts: NA
Location:  15.88°S, 52.26°W
Report Text: SBBW 292000Z 22004KT 9999 FEW020 33/21 Q1012
Loading
Personal Weather Stations






























Interactive Weather Map New forecast layout! Learn more

10-Day Weather Forecast

Advertisements
Track Severe Weather on mobile